Cedar Point, North Carolina
Current Conditions -  °F | °C
As of 10:57 AM on Thursday 29 Jan 2015 (Local Time) from KNJM Reporting Station
Broken Clouds Broken Clouds  
Wind Chill: 35°   Ceiling: 15000
Heat Index: 39°   Visibility: 10mi
Dew Point: 19°   Wind: 6mph
Humidity: 45%   Direction: 150°SSE
Pressure: 30.38"   Gusts: NA
Location:  34.7017°N, 77.1399°W
Report Text: KNJM 291557Z 15005KT 10SM BKN150 04/M07 A3038 RMK AO2 SLP290 T00391072 $
Loading
Personal Weather Stations






























Interactive Weather Map New forecast layout! Learn more

10-Day Weather Forecast

Advertisements
Track Severe Weather on mobile